createdAt,value
2023-04-15T08:18:51.123Z,1.05
2023-04-15T08:29:25.756Z,1.60
2023-04-15T08:34:31.458Z,0.68
2023-04-15T08:39:39.371Z,1.13
2023-04-15T08:44:48.134Z,0.45
2023-04-15T08:49:54.871Z,0.45
2023-04-15T08:55:02.048Z,0.40
2023-04-15T09:00:12.279Z,0.70
2023-04-15T09:05:18.271Z,0.73
2023-04-15T09:10:24.203Z,0.52
2023-04-15T09:15:32.862Z,0.95
2023-04-15T09:20:43.345Z,1.02
2023-04-15T09:25:49.694Z,0.65
2023-04-15T09:30:59.517Z,0.88
2023-04-15T09:36:07.260Z,0.63
2023-04-15T09:41:21.825Z,0.68
2023-04-15T09:46:44.393Z,0.73
2023-04-15T09:52:04.494Z,0.70
2023-04-15T09:57:12.757Z,0.43
2023-04-15T10:02:22.522Z,0.40
2023-04-15T10:07:29.418Z,0.93
2023-04-15T10:12:55.320Z,0.38
2023-04-15T10:18:04.716Z,1.30
2023-04-15T10:23:12.165Z,0.30
2023-04-15T10:28:21.207Z,1.92
2023-04-15T10:33:29.652Z,0.80
2023-04-15T10:38:39.666Z,1.10
2023-04-15T10:43:51.070Z,0.63
2023-04-15T10:48:59.195Z,0.43
2023-04-15T10:54:05.112Z,0.63
2023-04-15T10:59:12.832Z,0.57
2023-04-15T11:04:57.989Z,0.63
2023-04-15T11:15:32.959Z,0.65
2023-04-15T11:20:41.510Z,1.02
2023-04-15T11:25:47.179Z,0.70
2023-04-15T11:30:52.776Z,0.38
2023-04-15T11:36:01.386Z,1.05
2023-04-15T11:41:08.407Z,0.63
2023-04-15T11:46:16.236Z,0.50
2023-04-15T11:51:24.696Z,0.55
2023-04-15T11:56:34.975Z,0.50
2023-04-15T12:01:55.131Z,0.57
2023-04-15T12:07:31.853Z,0.43
2023-04-15T12:13:06.046Z,0.80
2023-04-15T12:18:31.871Z,0.55
2023-04-15T12:35:01.065Z,1.25
2023-04-15T12:40:37.201Z,0.40
2023-04-15T12:51:35.897Z,0.20
2023-04-15T12:56:48.088Z,0.38
2023-04-15T13:03:04.792Z,0.60
2023-04-15T13:08:24.096Z,0.32
2023-04-15T13:19:30.191Z,0.75
2023-04-15T13:31:00.434Z,0.43
2023-04-15T13:36:18.024Z,0.47
2023-04-15T13:41:29.704Z,0.45
2023-04-15T13:46:38.250Z,0.90
2023-04-15T13:51:46.377Z,0.60
2023-04-15T13:56:54.805Z,0.38
2023-04-15T14:02:03.264Z,0.43
2023-04-15T14:07:09.267Z,0.32
2023-04-15T14:12:16.247Z,0.30
2023-04-15T14:17:30.417Z,1.60
2023-04-15T14:22:35.960Z,0.57
2023-04-15T14:27:41.391Z,0.50
2023-04-15T14:32:50.250Z,0.82
2023-04-15T14:37:56.372Z,0.98
2023-04-15T14:43:03.523Z,0.50
2023-04-15T14:48:16.302Z,0.52
2023-04-15T14:53:29.146Z,0.40
2023-04-15T14:58:41.304Z,0.52
2023-04-15T15:03:50.252Z,0.43
2023-04-15T15:08:55.680Z,0.63
2023-04-15T15:14:01.768Z,0.73
2023-04-15T15:19:10.202Z,0.60
2023-04-15T15:24:16.299Z,2.08
2023-04-15T15:29:22.016Z,0.90
2023-04-15T15:34:31.950Z,0.70
2023-04-15T15:39:40.033Z,1.55
2023-04-15T15:44:46.092Z,1.98
2023-04-15T15:49:54.391Z,1.38
2023-04-15T15:54:59.724Z,0.30
2023-04-15T16:00:11.945Z,2.08
2023-04-15T16:05:21.450Z,1.33
2023-04-15T16:10:27.679Z,1.02
2023-04-15T16:15:37.973Z,1.75
2023-04-15T16:38:17.354Z,1.25
2023-04-15T16:44:44.055Z,1.42
2023-04-15T17:07:59.968Z,0.80
2023-04-15T17:19:04.909Z,1.20
2023-04-15T17:29:42.166Z,1.40
2023-04-15T17:35:34.956Z,0.95
2023-04-15T17:40:46.826Z,0.70
2023-04-15T17:45:52.841Z,0.75
2023-04-15T17:51:01.775Z,0.63
2023-04-15T17:56:08.130Z,3.42
2023-04-15T18:01:14.299Z,0.75
2023-04-15T18:06:23.594Z,0.93
2023-04-15T18:11:31.275Z,0.60
2023-04-15T18:16:37.473Z,0.70
2023-04-15T18:21:47.891Z,0.70
2023-04-15T18:26:57.525Z,0.95
2023-04-15T18:32:05.278Z,0.82
2023-04-15T18:37:14.500Z,0.85
2023-04-15T18:42:27.062Z,1.10
2023-04-15T18:47:33.543Z,1.27
2023-04-15T18:52:57.988Z,1.15
2023-04-15T18:58:09.123Z,1.05
2023-04-15T19:03:22.096Z,1.63
2023-04-15T19:08:34.807Z,0.93
2023-04-15T19:13:40.946Z,1.55
2023-04-15T19:18:50.275Z,0.88
2023-04-15T19:24:12.535Z,0.82
2023-04-15T19:40:07.949Z,1.67
2023-04-15T19:45:41.186Z,1.13
2023-04-15T19:50:47.500Z,0.95
2023-04-15T19:55:57.844Z,0.93
2023-04-15T20:01:18.578Z,0.75
2023-04-15T20:06:46.261Z,0.52
2023-04-15T20:12:48.388Z,0.63
2023-04-15T20:17:45.337Z,1.58
2023-04-15T20:22:51.724Z,1.45
2023-04-15T20:28:01.926Z,1.65
2023-04-15T20:33:09.160Z,1.52
2023-04-15T20:38:23.018Z,1.55
2023-04-15T20:43:32.151Z,1.50
2023-04-15T20:48:39.173Z,1.90
2023-04-15T20:53:52.239Z,2.25
2023-04-15T20:59:01.876Z,2.08
2023-04-15T21:04:16.196Z,1.98
2023-04-15T21:09:22.667Z,2.05
2023-04-15T21:14:31.927Z,1.75
2023-04-15T21:20:00.074Z,2.25
2023-04-15T21:25:11.982Z,1.98
2023-04-15T21:30:22.354Z,2.58
2023-04-15T21:35:29.289Z,2.40
2023-04-15T21:40:40.806Z,2.30
2023-04-15T21:46:21.006Z,2.28
2023-04-15T21:51:15.939Z,2.42
2023-04-15T21:56:21.841Z,2.53
2023-04-15T22:01:31.093Z,2.78
2023-04-15T22:06:39.923Z,2.53
2023-04-15T22:11:46.773Z,3.72
2023-04-15T22:16:55.231Z,3.08
2023-04-15T22:22:01.787Z,3.10
2023-04-15T22:27:07.381Z,3.95
